createdAt,value
2022-12-23T00:00:11.389Z,13.15
2022-12-23T00:02:44.050Z,11.63
2022-12-23T00:05:16.345Z,11.75
2022-12-23T00:07:49.747Z,11.23
2022-12-23T00:10:21.839Z,12.00
2022-12-23T00:13:12.083Z,13.65
2022-12-23T00:18:15.875Z,11.00
2022-12-23T00:20:47.899Z,11.65
2022-12-23T00:23:21.219Z,11.18
2022-12-23T00:25:53.277Z,12.38
2022-12-23T00:28:26.182Z,12.60
2022-12-23T00:31:00.944Z,13.82
2022-12-23T00:33:35.181Z,12.73
2022-12-23T00:36:15.648Z,11.60
2022-12-23T00:39:07.925Z,13.38
2022-12-23T00:41:58.491Z,12.88
2022-12-23T00:44:30.745Z,12.95
2022-12-23T00:47:02.710Z,15.10
2022-12-23T00:49:43.704Z,13.07
2022-12-23T00:52:15.978Z,12.80
2022-12-23T00:54:49.264Z,10.63
2022-12-23T00:57:21.219Z,13.10
2022-12-23T00:59:53.142Z,12.32
2022-12-23T01:02:43.966Z,11.23
2022-12-23T01:05:34.593Z,12.70
2022-12-23T01:08:08.802Z,12.95
2022-12-23T01:10:42.127Z,12.63
2022-12-23T01:13:14.106Z,11.77
2022-12-23T01:15:46.052Z,11.80
2022-12-23T01:18:18.019Z,10.52
2022-12-23T01:20:50.054Z,13.70
2022-12-23T01:23:22.708Z,11.45
2022-12-23T01:26:00.795Z,12.13
2022-12-23T01:28:33.605Z,11.40
2022-12-23T01:31:06.332Z,11.43
2022-12-23T01:33:38.358Z,12.35
2022-12-23T01:36:10.905Z,12.48
2022-12-23T01:38:43.066Z,12.85
2022-12-23T01:41:37.733Z,12.45
2022-12-23T01:44:50.031Z,12.63
2022-12-23T01:47:28.011Z,10.85
2022-12-23T01:50:05.906Z,11.68
2022-12-23T01:52:43.585Z,10.77
2022-12-23T01:55:18.909Z,14.15
2022-12-23T01:57:55.818Z,10.93
2022-12-23T02:00:46.474Z,13.45
2022-12-23T02:03:37.338Z,12.25
2022-12-23T02:06:29.949Z,13.43
2022-12-23T02:09:19.851Z,12.85
2022-12-23T02:12:10.558Z,13.65
2022-12-23T02:15:30.028Z,11.95
2022-12-23T02:18:14.616Z,12.10
2022-12-23T02:21:15.300Z,15.90
2022-12-23T02:24:16.472Z,14.73
2022-12-23T02:27:01.869Z,12.95
2022-12-23T02:30:03.427Z,13.05
2022-12-23T02:33:14.409Z,13.38
2022-12-23T02:35:55.420Z,13.30
2022-12-23T02:38:34.029Z,13.43
2022-12-23T02:41:15.602Z,15.48
2022-12-23T02:43:53.546Z,15.68
2022-12-23T02:46:33.268Z,16.10
2022-12-23T02:49:12.089Z,14.00
2022-12-23T02:51:48.157Z,15.13
2022-12-23T02:54:27.051Z,17.17
2022-12-23T02:57:02.717Z,19.50
2022-12-23T02:59:39.782Z,17.98
2022-12-23T03:02:11.962Z,15.82
2022-12-23T03:04:45.463Z,17.85
2022-12-23T03:07:20.700Z,18.23
2022-12-23T03:10:01.722Z,17.80
2022-12-23T03:12:49.931Z,17.45
2022-12-23T03:15:33.140Z,16.33
2022-12-23T03:18:12.474Z,15.13
2022-12-23T03:20:51.636Z,14.27
2022-12-23T03:23:28.068Z,16.75
2022-12-23T03:26:04.866Z,17.23
2022-12-23T03:28:42.963Z,15.93
2022-12-23T03:31:18.724Z,16.38
2022-12-23T03:33:56.313Z,17.92
2022-12-23T03:36:34.976Z,19.75
2022-12-23T03:39:10.737Z,15.98
2022-12-23T03:41:49.433Z,18.63
2022-12-23T03:44:26.482Z,16.33
2022-12-23T03:47:05.477Z,16.40
2022-12-23T03:49:41.843Z,15.68
2022-12-23T03:52:21.636Z,16.95
2022-12-23T03:54:55.962Z,15.85
2022-12-23T03:57:32.856Z,16.13
2022-12-23T04:00:06.668Z,17.02
2022-12-23T04:02:46.304Z,16.88
2022-12-23T04:05:23.734Z,15.40
2022-12-23T04:08:06.621Z,16.48
2022-12-23T04:10:38.945Z,16.85
2022-12-23T04:13:10.969Z,15.00
2022-12-23T04:15:43.343Z,15.13
2022-12-23T04:18:16.467Z,16.23
2022-12-23T04:20:48.394Z,17.90
2022-12-23T04:23:21.745Z,19.52
2022-12-23T04:25:53.778Z,18.13
2022-12-23T04:28:25.681Z,19.30
2022-12-23T04:30:57.670Z,18.25
2022-12-23T04:33:29.695Z,17.88
2022-12-23T04:36:01.672Z,14.65
2022-12-23T04:38:34.987Z,21.20
2022-12-23T04:41:06.979Z,18.98
2022-12-23T04:43:38.903Z,14.63
2022-12-23T04:46:10.922Z,19.33
2022-12-23T04:48:42.867Z,16.23
2022-12-23T04:51:14.962Z,16.35
2022-12-23T04:53:48.248Z,22.17
2022-12-23T04:56:20.292Z,15.88
2022-12-23T04:58:52.220Z,18.90
2022-12-23T05:01:24.253Z,21.40
2022-12-23T05:03:56.173Z,20.70
2022-12-23T05:06:28.212Z,20.77
2022-12-23T05:09:01.937Z,24.73
2022-12-23T05:11:38.530Z,19.35
2022-12-23T05:14:13.952Z,19.55
2022-12-23T05:16:45.935Z,20.08
2022-12-23T05:19:17.907Z,23.25
2022-12-23T05:21:49.873Z,23.38
2022-12-23T05:24:23.189Z,46.00
2022-12-23T05:26:59.796Z,44.03
2022-12-23T05:29:32.191Z,35.22
2022-12-23T05:32:04.689Z,26.77
2022-12-23T05:34:36.618Z,22.80
2022-12-23T05:37:08.620Z,31.08
2022-12-23T05:39:41.998Z,57.90
2022-12-23T05:42:19.307Z,30.98
2022-12-23T05:44:51.301Z,92.07
2022-12-23T05:47:23.299Z,50.30
2022-12-23T05:49:55.277Z,59.90
2022-12-23T05:52:27.250Z,38.90
2022-12-23T05:55:00.617Z,46.72
2022-12-23T05:57:32.683Z,76.82
2022-12-23T06:00:05.350Z,41.60
2022-12-23T06:02:48.463Z,24.23
2022-12-23T06:05:23.777Z,38.88
2022-12-23T06:07:55.806Z,55.00
2022-12-23T06:10:29.300Z,34.67
2022-12-23T06:13:01.278Z,31.50
2022-12-23T06:15:33.209Z,32.97
2022-12-23T06:18:05.236Z,23.30
2022-12-23T06:20:37.150Z,17.70
2022-12-23T06:23:09.153Z,21.33
2022-12-23T06:25:42.479Z,20.92
2022-12-23T06:28:14.520Z,32.78
2022-12-23T06:30:46.412Z,23.52
2022-12-23T06:33:18.410Z,24.65
2022-12-23T06:35:50.598Z,30.98
2022-12-23T06:38:22.741Z,28.17
2022-12-23T06:40:56.117Z,20.50
2022-12-23T06:43:29.249Z,18.63
2022-12-23T06:46:01.259Z,20.13
2022-12-23T06:48:33.280Z,15.90
2022-12-23T06:51:05.669Z,18.90
2022-12-23T06:53:37.657Z,16.77
2022-12-23T06:56:11.091Z,16.48
2022-12-23T06:58:43.110Z,14.55
2022-12-23T07:01:15.147Z,16.30
2022-12-23T07:03:47.600Z,33.10
2022-12-23T07:06:19.578Z,20.08
2022-12-23T07:08:51.573Z,17.50
2022-12-23T07:11:24.930Z,17.13
2022-12-23T07:13:57.497Z,60.80
2022-12-23T07:16:29.611Z,23.25
2022-12-23T07:19:01.654Z,20.33
2022-12-23T07:21:34.417Z,16.60
2022-12-23T07:24:07.496Z,18.77
2022-12-23T07:26:41.028Z,20.00
2022-12-23T07:29:13.041Z,22.27
2022-12-23T07:31:45.063Z,34.97
2022-12-23T07:34:17.163Z,22.45
2022-12-23T07:36:49.122Z,21.55
2022-12-23T07:39:21.135Z,25.15
2022-12-23T07:42:16.547Z,21.00
2022-12-23T07:44:46.433Z,18.45
2022-12-23T07:47:18.396Z,20.08
2022-12-23T07:49:50.385Z,19.33
2022-12-23T07:52:22.686Z,21.60
2022-12-23T07:54:54.747Z,17.00
2022-12-23T07:57:29.367Z,18.15
2022-12-23T08:00:01.358Z,15.45
2022-12-23T08:02:33.427Z,16.98
2022-12-23T08:05:07.071Z,19.98
2022-12-23T08:07:39.306Z,17.15
2022-12-23T08:10:12.562Z,17.75
2022-12-23T08:12:46.597Z,22.70
2022-12-23T08:15:18.719Z,19.45
2022-12-23T08:17:50.660Z,18.80
2022-12-23T08:20:22.687Z,22.08
2022-12-23T08:22:55.412Z,21.85
2022-12-23T08:25:27.441Z,19.95
2022-12-23T08:28:00.791Z,22.83
2022-12-23T08:30:32.870Z,20.13
2022-12-23T08:33:04.905Z,18.65
2022-12-23T08:35:37.479Z,15.80
2022-12-23T08:38:09.467Z,15.85
2022-12-23T08:40:41.601Z,14.38
2022-12-23T08:43:14.963Z,25.58
2022-12-23T11:17:35.993Z,13.35
2022-12-23T11:20:14.210Z,13.60
2022-12-23T11:22:49.332Z,21.25
2022-12-23T11:25:31.733Z,12.77
2022-12-23T11:28:07.764Z,10.45
2022-12-23T11:30:56.467Z,11.45
2022-12-23T11:33:32.625Z,12.63
2022-12-23T11:36:07.728Z,10.23
2022-12-23T11:38:49.942Z,10.32
2022-12-23T11:41:25.772Z,11.20
2022-12-23T11:44:01.564Z,10.98
2022-12-23T11:46:35.287Z,9.68
2022-12-23T11:49:19.638Z,10.20
2022-12-23T11:52:01.951Z,10.27
2022-12-23T11:54:34.603Z,10.35
2022-12-23T11:57:15.907Z,11.00
2022-12-23T11:59:49.956Z,10.68
2022-12-23T12:02:29.656Z,10.30
2022-12-23T12:05:06.825Z,9.73
2022-12-23T12:07:42.321Z,9.20
2022-12-23T12:10:18.573Z,10.57
2022-12-23T12:12:55.228Z,10.48
2022-12-23T12:15:37.337Z,8.77
2022-12-23T12:18:13.076Z,10.43
2022-12-23T12:20:51.991Z,10.90
2022-12-23T12:23:29.446Z,9.55
2022-12-23T12:26:06.312Z,10.75
2022-12-23T12:28:41.658Z,10.25
2022-12-23T12:31:22.331Z,11.30
2022-12-23T12:34:02.311Z,17.38
2022-12-23T12:36:43.960Z,15.57
2022-12-23T12:39:21.159Z,19.98
2022-12-23T12:42:05.053Z,16.83
2022-12-23T12:44:43.819Z,15.27
2022-12-23T12:47:52.134Z,15.27
2022-12-23T12:50:18.037Z,12.93
2022-12-23T12:52:55.246Z,14.55
2022-12-23T12:55:31.961Z,11.38
2022-12-23T12:58:03.936Z,10.95
2022-12-23T13:00:49.154Z,10.95
2022-12-23T13:03:45.143Z,11.32
2022-12-23T13:06:24.017Z,12.10
2022-12-23T13:09:07.629Z,11.98
2022-12-23T13:11:48.277Z,10.05
2022-12-23T13:14:33.975Z,10.68
2022-12-23T13:17:12.738Z,10.23
2022-12-23T13:19:51.467Z,10.80
2022-12-23T13:22:28.240Z,9.73
2022-12-23T13:25:05.968Z,10.30
2022-12-23T13:27:44.435Z,11.70
2022-12-23T13:30:19.213Z,11.13
2022-12-23T13:33:14.182Z,13.88
2022-12-23T13:36:06.244Z,10.27
2022-12-23T13:38:56.509Z,13.30
2022-12-23T13:41:33.754Z,14.02
2022-12-23T13:44:08.782Z,10.35
2022-12-23T13:46:52.009Z,15.95
2022-12-23T13:49:35.956Z,26.75
2022-12-23T13:52:11.975Z,19.77
2022-12-23T13:54:59.830Z,13.60
2022-12-23T13:57:52.209Z,17.50
2022-12-23T14:00:28.544Z,14.15
2022-12-23T14:03:19.530Z,11.55
2022-12-23T14:05:53.342Z,14.93
2022-12-23T14:08:31.633Z,16.48
2022-12-23T14:11:14.731Z,14.70
2022-12-23T14:13:56.414Z,15.27
2022-12-23T14:16:46.386Z,17.00
2022-12-23T14:19:43.673Z,15.20
2022-12-23T14:22:35.636Z,14.18
2022-12-23T14:25:46.430Z,14.73
2022-12-23T14:28:37.240Z,13.57
2022-12-23T14:31:34.278Z,13.30
2022-12-23T14:34:25.845Z,14.00
2022-12-23T14:37:38.166Z,19.48
2022-12-23T14:40:43.432Z,15.98
2022-12-23T14:43:30.650Z,13.15
2022-12-23T14:46:07.289Z,13.87
2022-12-23T14:49:39.157Z,13.00
2022-12-23T14:52:48.349Z,12.27
2022-12-23T14:55:43.940Z,11.30
2022-12-23T14:58:44.887Z,11.45
2022-12-23T15:01:20.473Z,14.02
2022-12-23T15:03:59.278Z,9.25
2022-12-23T15:06:38.205Z,10.45
2022-12-23T15:09:20.831Z,11.82
2022-12-23T15:11:54.807Z,12.70
2022-12-23T15:14:32.837Z,10.88
2022-12-23T15:17:18.561Z,11.95
2022-12-23T15:19:50.594Z,11.50
2022-12-23T15:22:32.622Z,9.82
2022-12-23T15:25:06.315Z,12.60
2022-12-23T15:27:38.299Z,9.50
2022-12-23T15:30:12.885Z,8.75
2022-12-23T15:32:46.902Z,10.85
2022-12-23T15:35:23.824Z,9.70
2022-12-23T15:37:58.605Z,11.02
2022-12-23T15:40:33.940Z,10.90
2022-12-23T15:43:18.671Z,12.50
2022-12-23T15:45:51.851Z,13.93
2022-12-23T15:48:25.895Z,11.10
2022-12-23T15:51:02.664Z,11.00
2022-12-23T15:53:39.441Z,14.00
2022-12-23T15:56:21.275Z,14.77
2022-12-23T15:58:55.263Z,17.42
2022-12-23T16:01:27.744Z,13.77
2022-12-23T16:04:00.608Z,16.27
2022-12-23T16:06:34.679Z,14.48
2022-12-23T16:09:25.945Z,18.92
2022-12-23T16:12:00.535Z,13.90
2022-12-23T16:14:38.894Z,20.10
2022-12-23T16:17:23.962Z,27.42
2022-12-23T16:20:18.849Z,16.20
2022-12-23T16:22:53.123Z,19.40
2022-12-23T16:25:31.283Z,16.77
2022-12-23T16:28:06.339Z,19.00
2022-12-23T16:30:41.785Z,14.38
2022-12-23T16:33:37.402Z,11.95
2022-12-23T16:36:16.927Z,13.15
2022-12-23T16:38:51.151Z,15.45
2022-12-23T16:41:24.493Z,25.00
2022-12-23T16:43:56.451Z,15.93
2022-12-23T16:46:34.158Z,17.20
2022-12-23T16:49:11.138Z,15.27
2022-12-23T16:51:43.171Z,25.10
2022-12-23T16:54:17.404Z,14.95
2022-12-23T16:56:50.713Z,16.08
2022-12-23T16:59:24.877Z,17.42
2022-12-23T17:02:03.204Z,35.75
2022-12-23T17:04:35.769Z,17.83
2022-12-23T17:07:11.617Z,13.38
2022-12-23T17:09:43.523Z,9.77
2022-12-23T17:12:16.905Z,12.55
2022-12-23T17:14:48.848Z,9.68
2022-12-23T17:17:23.681Z,10.25
2022-12-23T17:19:57.618Z,11.15
2022-12-23T17:22:32.582Z,10.85
2022-12-23T17:25:05.073Z,11.05
2022-12-23T17:27:38.418Z,8.65
2022-12-23T17:30:15.134Z,10.40
2022-12-23T17:32:52.317Z,9.63
2022-12-23T17:35:25.412Z,10.95
2022-12-23T17:37:57.368Z,11.57
2022-12-23T17:40:36.071Z,11.43
2022-12-23T17:43:12.427Z,17.05
2022-12-23T17:45:45.613Z,10.70
2022-12-23T17:48:21.472Z,27.20
2022-12-23T17:50:56.167Z,10.93
2022-12-23T17:53:28.108Z,22.80
2022-12-23T17:56:00.034Z,29.92
2022-12-23T17:58:33.395Z,28.02
2022-12-23T18:01:05.866Z,16.02
2022-12-23T18:03:37.842Z,19.00
2022-12-23T18:06:12.121Z,13.70
2022-12-23T18:08:44.409Z,12.25
2022-12-23T18:11:21.102Z,11.82
2022-12-23T18:13:54.669Z,20.52
2022-12-23T18:16:26.769Z,18.20
2022-12-23T18:18:58.782Z,22.73
2022-12-23T18:21:30.811Z,31.50
2022-12-23T18:24:02.781Z,25.80
2022-12-23T18:26:34.733Z,37.95
2022-12-23T18:29:08.102Z,33.60
2022-12-23T18:31:50.601Z,38.28
2022-12-23T18:34:23.764Z,23.60
2022-12-23T18:36:55.832Z,16.50
2022-12-23T18:39:27.870Z,19.50
2022-12-23T18:41:59.843Z,20.25
2022-12-23T18:44:33.153Z,17.80
2022-12-23T18:47:05.151Z,15.02
2022-12-23T18:49:37.621Z,14.98
2022-12-23T18:52:12.711Z,12.35
2022-12-23T18:54:44.651Z,10.20
2022-12-23T18:57:16.628Z,13.48
2022-12-23T18:59:49.936Z,9.13
2022-12-23T19:02:21.907Z,9.10
2022-12-23T19:04:53.885Z,7.28
2022-12-23T19:07:25.849Z,6.38
2022-12-23T19:09:57.809Z,19.90
2022-12-23T19:12:29.788Z,29.90
2022-12-23T19:15:03.414Z,16.58
2022-12-23T19:17:35.435Z,9.00
2022-12-23T19:20:10.227Z,14.98
2022-12-23T19:22:42.150Z,15.25
2022-12-23T19:25:17.104Z,8.00
2022-12-23T19:27:49.071Z,24.20
2022-12-23T19:30:22.474Z,12.88
2022-12-23T19:32:54.559Z,20.63
2022-12-23T19:35:26.516Z,15.35
2022-12-23T19:37:58.518Z,21.88
2022-12-23T19:40:30.509Z,21.85
2022-12-23T19:43:03.438Z,7.72
2022-12-23T19:45:36.822Z,7.75
2022-12-23T19:48:09.274Z,6.78
2022-12-23T19:50:41.272Z,5.57
2022-12-23T19:53:13.282Z,10.88
2022-12-23T19:55:45.239Z,6.18
2022-12-23T19:58:17.193Z,5.65
2022-12-23T20:00:50.635Z,4.70
2022-12-23T20:03:22.647Z,4.32
2022-12-23T20:05:54.674Z,5.05
2022-12-23T20:08:26.629Z,6.32
2022-12-23T20:11:06.293Z,6.32
2022-12-23T20:13:38.810Z,7.05
2022-12-23T20:16:13.255Z,5.43
2022-12-23T20:18:45.438Z,6.53
2022-12-23T20:21:17.407Z,6.60
2022-12-23T20:23:50.101Z,5.32
2022-12-23T20:26:23.686Z,3.72
2022-12-23T20:28:56.051Z,4.30
2022-12-23T20:31:31.010Z,2.85
2022-12-23T20:34:04.392Z,4.30
2022-12-23T20:36:37.041Z,4.63
2022-12-23T20:39:09.164Z,3.53
2022-12-23T20:41:41.103Z,2.70
2022-12-23T20:47:06.767Z,3.13
2022-12-23T20:49:38.834Z,2.75
2022-12-23T20:52:10.892Z,3.63
2022-12-23T20:54:42.867Z,5.32
2022-12-23T20:57:14.907Z,4.75
2022-12-23T20:59:46.934Z,5.25
2022-12-23T21:02:20.604Z,4.70
2022-12-23T21:04:52.703Z,3.75
2022-12-23T21:07:26.328Z,4.47
2022-12-23T21:09:58.472Z,5.80
2022-12-23T21:12:30.593Z,8.88
2022-12-23T21:15:02.586Z,4.20
2022-12-23T21:17:35.922Z,3.17
2022-12-23T21:20:09.232Z,3.50
2022-12-23T21:22:41.303Z,4.57
2022-12-23T21:25:13.279Z,3.10
2022-12-23T21:27:45.303Z,2.88
2022-12-23T21:30:17.394Z,4.53
2022-12-23T21:32:51.879Z,16.90
2022-12-23T21:35:23.848Z,4.50
2022-12-23T21:37:55.805Z,2.67
2022-12-23T21:40:27.845Z,3.38
2022-12-23T21:43:05.408Z,2.40
2022-12-23T21:48:13.542Z,4.53
2022-12-23T21:50:45.485Z,38.53
2022-12-23T21:53:17.485Z,7.10
2022-12-23T21:55:49.515Z,6.70
2022-12-23T21:58:21.442Z,3.78
2022-12-23T22:00:53.446Z,2.60
2022-12-23T22:03:27.333Z,4.00
2022-12-23T22:06:09.955Z,5.40
2022-12-23T22:08:43.580Z,5.45
2022-12-23T22:11:17.625Z,3.42
2022-12-23T22:13:50.040Z,2.63
2022-12-23T22:16:23.949Z,3.05
2022-12-23T22:18:58.752Z,4.85
2022-12-23T22:21:32.394Z,3.97
2022-12-23T22:24:05.188Z,3.15
2022-12-23T22:26:37.630Z,5.43
2022-12-23T22:29:11.232Z,3.47
2022-12-23T22:31:45.887Z,4.47
2022-12-23T22:34:21.092Z,4.18
2022-12-23T22:36:53.107Z,2.78
2022-12-23T22:39:25.323Z,2.55
2022-12-23T22:41:57.308Z,2.13
2022-12-23T22:44:29.272Z,2.03
2022-12-23T22:47:01.741Z,2.05
2022-12-23T22:49:35.195Z,1.95
2022-12-23T22:52:07.122Z,0.93
2022-12-23T22:54:39.141Z,2.53
2022-12-23T22:57:11.397Z,1.08
2022-12-23T22:59:43.722Z,1.20
2022-12-23T23:02:15.779Z,1.02
2022-12-23T23:04:49.356Z,0.93
2022-12-23T23:07:21.320Z,1.20
2022-12-23T23:09:53.337Z,0.65
2022-12-23T23:12:25.424Z,1.83
2022-12-23T23:14:57.353Z,1.40
2022-12-23T23:17:29.397Z,1.40
2022-12-23T23:20:02.886Z,2.45
2022-12-23T23:22:34.791Z,4.43
2022-12-23T23:25:07.489Z,1.85
2022-12-23T23:27:39.434Z,1.73
2022-12-23T23:30:11.989Z,1.50
2022-12-23T23:32:44.000Z,1.80
2022-12-23T23:35:17.467Z,1.58
2022-12-23T23:37:49.426Z,1.17
2022-12-23T23:40:21.437Z,1.77
2022-12-23T23:42:53.877Z,1.15
2022-12-23T23:45:27.530Z,1.63
2022-12-23T23:47:59.602Z,1.88
2022-12-23T23:50:33.065Z,1.45
2022-12-23T23:53:05.253Z,1.70
2022-12-23T23:55:37.357Z,1.02
2022-12-23T23:58:10.668Z,1.02
